sensor_id;sensor_type;location;lat;lon;timestamp;temperature;humidity
64718;DHT22;62506;46.070;14.492;2023-03-01T00:01:21;21.40;45.30
64718;DHT22;62506;46.070;14.492;2023-03-01T00:03:46;21.40;45.40
64718;DHT22;62506;46.070;14.492;2023-03-01T00:06:12;21.40;45.40
64718;DHT22;62506;46.070;14.492;2023-03-01T00:08:38;21.40;45.40
64718;DHT22;62506;46.070;14.492;2023-03-01T00:11:06;21.40;45.40
64718;DHT22;62506;46.070;14.492;2023-03-01T00:13:32;21.40;45.40
64718;DHT22;62506;46.070;14.492;2023-03-01T00:15:57;21.40;45.50
64718;DHT22;62506;46.070;14.492;2023-03-01T00:18:23;21.40;45.40
64718;DHT22;62506;46.070;14.492;2023-03-01T00:20:50;21.40;45.50
64718;DHT22;62506;46.070;14.492;2023-03-01T00:23:16;21.40;45.50
64718;DHT22;62506;46.070;14.492;2023-03-01T00:25:42;21.40;45.50
64718;DHT22;62506;46.070;14.492;2023-03-01T00:28:08;21.40;45.50
64718;DHT22;62506;46.070;14.492;2023-03-01T00:30:33;21.30;45.50
64718;DHT22;62506;46.070;14.492;2023-03-01T00:32:59;21.30;45.60
64718;DHT22;62506;46.070;14.492;2023-03-01T00:35:24;21.30;45.60
64718;DHT22;62506;46.070;14.492;2023-03-01T00:37:50;21.30;45.50
64718;DHT22;62506;46.070;14.492;2023-03-01T00:40:26;21.30;45.60
64718;DHT22;62506;46.070;14.492;2023-03-01T00:42:52;21.30;45.60
64718;DHT22;62506;46.070;14.492;2023-03-01T00:45:17;21.30;45.60
64718;DHT22;62506;46.070;14.492;2023-03-01T00:47:43;21.30;45.60
64718;DHT22;62506;46.070;14.492;2023-03-01T00:50:09;21.30;45.70
64718;DHT22;62506;46.070;14.492;2023-03-01T00:52:35;21.30;45.70
64718;DHT22;62506;46.070;14.492;2023-03-01T00:55:01;21.30;45.70
64718;DHT22;62506;46.070;14.492;2023-03-01T00:57:26;21.20;45.80
64718;DHT22;62506;46.070;14.492;2023-03-01T00:59:52;21.20;45.80
64718;DHT22;62506;46.070;14.492;2023-03-01T01:02:18;21.20;45.80
64718;DHT22;62506;46.070;14.492;2023-03-01T01:04:44;21.20;45.80
64718;DHT22;62506;46.070;14.492;2023-03-01T01:07:10;21.20;45.90
64718;DHT22;62506;46.070;14.492;2023-03-01T01:09:35;21.20;45.90
64718;DHT22;62506;46.070;14.492;2023-03-01T01:12:02;21.20;45.90
64718;DHT22;62506;46.070;14.492;2023-03-01T01:14:28;21.20;45.90
64718;DHT22;62506;46.070;14.492;2023-03-01T01:16:53;21.20;45.90
64718;DHT22;62506;46.070;14.492;2023-03-01T01:19:19;21.20;45.90
64718;DHT22;62506;46.070;14.492;2023-03-01T01:21:45;21.20;46.00
64718;DHT22;62506;46.070;14.492;2023-03-01T01:24:10;21.20;46.00
64718;DHT22;62506;46.070;14.492;2023-03-01T01:26:36;21.20;46.00
64718;DHT22;62506;46.070;14.492;2023-03-01T01:29:03;21.20;46.00
64718;DHT22;62506;46.070;14.492;2023-03-01T01:31:29;21.20;45.90
64718;DHT22;62506;46.070;14.492;2023-03-01T01:33:55;21.20;45.80
64718;DHT22;62506;46.070;14.492;2023-03-01T01:36:21;21.20;45.80
64718;DHT22;62506;46.070;14.492;2023-03-01T01:38:46;21.20;45.80
64718;DHT22;62506;46.070;14.492;2023-03-01T01:41:12;21.20;45.80
64718;DHT22;62506;46.070;14.492;2023-03-01T01:43:39;21.20;45.70
64718;DHT22;62506;46.070;14.492;2023-03-01T01:48:52;21.20;45.70
64718;DHT22;62506;46.070;14.492;2023-03-01T01:51:20;21.20;45.70
64718;DHT22;62506;46.070;14.492;2023-03-01T01:53:48;21.20;45.70
64718;DHT22;62506;46.070;14.492;2023-03-01T01:56:14;21.30;45.80
64718;DHT22;62506;46.070;14.492;2023-03-01T01:58:40;21.20;45.80
64718;DHT22;62506;46.070;14.492;2023-03-01T02:01:07;21.20;45.80
64718;DHT22;62506;46.070;14.492;2023-03-01T02:03:32;21.20;45.80
64718;DHT22;62506;46.070;14.492;2023-03-01T02:06:12;21.20;45.80
64718;DHT22;62506;46.070;14.492;2023-03-01T02:08:40;21.20;45.70
64718;DHT22;62506;46.070;14.492;2023-03-01T02:11:07;21.20;45.80
64718;DHT22;62506;46.070;14.492;2023-03-01T02:13:33;21.20;45.80
64718;DHT22;62506;46.070;14.492;2023-03-01T02:15:59;21.20;46.00
64718;DHT22;62506;46.070;14.492;2023-03-01T02:18:27;21.20;45.80
64718;DHT22;62506;46.070;14.492;2023-03-01T02:23:24;21.20;45.80
64718;DHT22;62506;46.070;14.492;2023-03-01T02:30:45;21.20;45.90
64718;DHT22;62506;46.070;14.492;2023-03-01T02:33:31;21.20;45.90
64718;DHT22;62506;46.070;14.492;2023-03-01T02:35:59;21.20;45.90
64718;DHT22;62506;46.070;14.492;2023-03-01T02:38:25;21.20;45.90
64718;DHT22;62506;46.070;14.492;2023-03-01T02:40:51;21.20;45.90
64718;DHT22;62506;46.070;14.492;2023-03-01T02:43:17;21.20;45.90
64718;DHT22;62506;46.070;14.492;2023-03-01T02:45:51;21.20;45.80
64718;DHT22;62506;46.070;14.492;2023-03-01T02:48:18;21.20;45.80
64718;DHT22;62506;46.070;14.492;2023-03-01T02:50:46;21.20;45.80
64718;DHT22;62506;46.070;14.492;2023-03-01T02:53:21;21.20;45.80
64718;DHT22;62506;46.070;14.492;2023-03-01T02:55:48;21.20;45.80
64718;DHT22;62506;46.070;14.492;2023-03-01T02:58:14;21.20;45.80
64718;DHT22;62506;46.070;14.492;2023-03-01T03:00:40;21.20;45.80
64718;DHT22;62506;46.070;14.492;2023-03-01T03:03:12;21.20;45.80
64718;DHT22;62506;46.070;14.492;2023-03-01T03:05:38;21.20;45.80
64718;DHT22;62506;46.070;14.492;2023-03-01T03:08:04;21.20;45.80
64718;DHT22;62506;46.070;14.492;2023-03-01T03:10:31;21.20;45.80
64718;DHT22;62506;46.070;14.492;2023-03-01T03:12:58;21.10;45.80
64718;DHT22;62506;46.070;14.492;2023-03-01T03:15:25;21.20;45.90
64718;DHT22;62506;46.070;14.492;2023-03-01T03:17:51;21.20;46.00
64718;DHT22;62506;46.070;14.492;2023-03-01T03:20:18;21.10;45.90
64718;DHT22;62506;46.070;14.492;2023-03-01T03:22:47;21.10;45.90
64718;DHT22;62506;46.070;14.492;2023-03-01T03:25:13;21.10;45.90
64718;DHT22;62506;46.070;14.492;2023-03-01T03:27:39;21.10;45.90
64718;DHT22;62506;46.070;14.492;2023-03-01T03:30:05;21.10;45.90
64718;DHT22;62506;46.070;14.492;2023-03-01T03:32:35;21.10;45.90
64718;DHT22;62506;46.070;14.492;2023-03-01T03:35:01;21.10;45.90
64718;DHT22;62506;46.070;14.492;2023-03-01T03:37:27;21.10;45.90
64718;DHT22;62506;46.070;14.492;2023-03-01T03:40:11;21.10;45.90
64718;DHT22;62506;46.070;14.492;2023-03-01T03:42:40;21.10;46.00
64718;DHT22;62506;46.070;14.492;2023-03-01T03:45:06;21.10;46.70
64718;DHT22;62506;46.070;14.492;2023-03-01T03:47:32;21.10;46.00
64718;DHT22;62506;46.070;14.492;2023-03-01T03:49:57;21.10;45.90
64718;DHT22;62506;46.070;14.492;2023-03-01T03:52:23;21.10;46.00
64718;DHT22;62506;46.070;14.492;2023-03-01T03:54:48;21.10;46.10
64718;DHT22;62506;46.070;14.492;2023-03-01T03:57:14;21.10;45.90
64718;DHT22;62506;46.070;14.492;2023-03-01T03:59:39;21.10;46.10
64718;DHT22;62506;46.070;14.492;2023-03-01T04:02:05;21.10;46.00
64718;DHT22;62506;46.070;14.492;2023-03-01T04:04:33;21.10;46.00
64718;DHT22;62506;46.070;14.492;2023-03-01T04:06:58;21.10;46.00
64718;DHT22;62506;46.070;14.492;2023-03-01T04:09:24;21.10;46.10
64718;DHT22;62506;46.070;14.492;2023-03-01T04:11:49;21.10;46.10
64718;DHT22;62506;46.070;14.492;2023-03-01T04:14:15;21.10;46.00
64718;DHT22;62506;46.070;14.492;2023-03-01T04:16:40;21.10;46.00
64718;DHT22;62506;46.070;14.492;2023-03-01T04:19:06;21.10;46.00
64718;DHT22;62506;46.070;14.492;2023-03-01T04:21:31;21.10;46.00
64718;DHT22;62506;46.070;14.492;2023-03-01T04:23:57;21.10;46.00
64718;DHT22;62506;46.070;14.492;2023-03-01T04:26:23;21.10;46.00
64718;DHT22;62506;46.070;14.492;2023-03-01T04:28:48;21.10;46.00
64718;DHT22;62506;46.070;14.492;2023-03-01T04:31:17;21.10;45.90
64718;DHT22;62506;46.070;14.492;2023-03-01T04:33:47;21.10;45.90
64718;DHT22;62506;46.070;14.492;2023-03-01T04:36:14;21.20;45.60
64718;DHT22;62506;46.070;14.492;2023-03-01T04:38:40;21.20;45.20
64718;DHT22;62506;46.070;14.492;2023-03-01T04:41:06;21.20;45.10
64718;DHT22;62506;46.070;14.492;2023-03-01T04:43:32;21.30;45.00
64718;DHT22;62506;46.070;14.492;2023-03-01T04:46:03;21.30;44.80
64718;DHT22;62506;46.070;14.492;2023-03-01T04:48:29;21.30;44.70
64718;DHT22;62506;46.070;14.492;2023-03-01T04:50:55;21.30;44.70
64718;DHT22;62506;46.070;14.492;2023-03-01T04:53:21;21.30;44.40
64718;DHT22;62506;46.070;14.492;2023-03-01T04:55:46;21.40;44.50
64718;DHT22;62506;46.070;14.492;2023-03-01T04:58:12;21.40;44.40
64718;DHT22;62506;46.070;14.492;2023-03-01T05:00:37;21.40;44.50
64718;DHT22;62506;46.070;14.492;2023-03-01T05:03:03;21.40;44.80
64718;DHT22;62506;46.070;14.492;2023-03-01T05:05:31;21.40;44.60
64718;DHT22;62506;46.070;14.492;2023-03-01T05:07:57;21.40;44.70
64718;DHT22;62506;46.070;14.492;2023-03-01T05:10:24;21.40;44.80
64718;DHT22;62506;46.070;14.492;2023-03-01T05:12:49;21.40;44.80
64718;DHT22;62506;46.070;14.492;2023-03-01T05:15:17;21.50;44.90
64718;DHT22;62506;46.070;14.492;2023-03-01T05:17:43;21.50;44.90
64718;DHT22;62506;46.070;14.492;2023-03-01T05:20:09;21.50;44.90
64718;DHT22;62506;46.070;14.492;2023-03-01T05:22:35;21.50;44.80
64718;DHT22;62506;46.070;14.492;2023-03-01T05:25:01;21.60;44.80
64718;DHT22;62506;46.070;14.492;2023-03-01T05:27:27;21.60;44.80
64718;DHT22;62506;46.070;14.492;2023-03-01T05:29:52;21.70;45.10
64718;DHT22;62506;46.070;14.492;2023-03-01T05:32:18;21.70;45.50
64718;DHT22;62506;46.070;14.492;2023-03-01T05:34:44;21.80;45.60
64718;DHT22;62506;46.070;14.492;2023-03-01T05:37:12;21.80;45.60
64718;DHT22;62506;46.070;14.492;2023-03-01T05:39:38;21.80;45.60
64718;DHT22;62506;46.070;14.492;2023-03-01T05:42:04;21.80;46.20
64718;DHT22;62506;46.070;14.492;2023-03-01T05:44:29;21.90;45.80
64718;DHT22;62506;46.070;14.492;2023-03-01T05:46:55;21.80;45.50
64718;DHT22;62506;46.070;14.492;2023-03-01T05:49:21;21.80;45.40
64718;DHT22;62506;46.070;14.492;2023-03-01T05:51:51;21.80;45.50
64718;DHT22;62506;46.070;14.492;2023-03-01T05:54:17;21.70;45.50
64718;DHT22;62506;46.070;14.492;2023-03-01T05:56:44;21.70;45.10
64718;DHT22;62506;46.070;14.492;2023-03-01T05:59:10;21.70;45.30
64718;DHT22;62506;46.070;14.492;2023-03-01T06:01:36;21.70;45.60
64718;DHT22;62506;46.070;14.492;2023-03-01T06:04:02;21.70;45.70
64718;DHT22;62506;46.070;14.492;2023-03-01T06:06:27;21.70;45.20
64718;DHT22;62506;46.070;14.492;2023-03-01T06:08:53;21.70;44.90
64718;DHT22;62506;46.070;14.492;2023-03-01T06:11:19;21.70;45.00
64718;DHT22;62506;46.070;14.492;2023-03-01T06:13:45;21.70;44.80
64718;DHT22;62506;46.070;14.492;2023-03-01T06:16:11;21.70;44.70
64718;DHT22;62506;46.070;14.492;2023-03-01T06:18:37;21.70;44.80
64718;DHT22;62506;46.070;14.492;2023-03-01T06:21:03;21.70;45.30
64718;DHT22;62506;46.070;14.492;2023-03-01T06:23:28;21.70;44.50
64718;DHT22;62506;46.070;14.492;2023-03-01T06:25:54;21.70;44.60
64718;DHT22;62506;46.070;14.492;2023-03-01T06:28:20;21.60;44.50
64718;DHT22;62506;46.070;14.492;2023-03-01T06:30:45;21.60;44.50
64718;DHT22;62506;46.070;14.492;2023-03-01T06:33:11;21.60;44.60
64718;DHT22;62506;46.070;14.492;2023-03-01T06:35:37;21.60;44.40
64718;DHT22;62506;46.070;14.492;2023-03-01T06:38:03;21.60;44.20
64718;DHT22;62506;46.070;14.492;2023-03-01T06:40:29;21.60;44.10
64718;DHT22;62506;46.070;14.492;2023-03-01T06:42:56;21.60;44.10
64718;DHT22;62506;46.070;14.492;2023-03-01T06:45:22;21.60;44.00
64718;DHT22;62506;46.070;14.492;2023-03-01T06:47:47;21.60;44.00
64718;DHT22;62506;46.070;14.492;2023-03-01T06:50:13;21.60;44.00
64718;DHT22;62506;46.070;14.492;2023-03-01T06:52:39;21.50;43.90
64718;DHT22;62506;46.070;14.492;2023-03-01T06:55:05;21.50;43.80
64718;DHT22;62506;46.070;14.492;2023-03-01T06:57:30;21.50;43.80
64718;DHT22;62506;46.070;14.492;2023-03-01T06:59:56;21.50;43.80
64718;DHT22;62506;46.070;14.492;2023-03-01T07:02:22;21.50;43.80
64718;DHT22;62506;46.070;14.492;2023-03-01T07:04:51;21.50;43.70
64718;DHT22;62506;46.070;14.492;2023-03-01T07:07:17;21.40;43.60
64718;DHT22;62506;46.070;14.492;2023-03-01T07:09:46;21.40;43.60
64718;DHT22;62506;46.070;14.492;2023-03-01T07:12:13;21.40;43.50
64718;DHT22;62506;46.070;14.492;2023-03-01T07:14:39;21.40;43.50
64718;DHT22;62506;46.070;14.492;2023-03-01T07:17:04;21.40;43.40
64718;DHT22;62506;46.070;14.492;2023-03-01T07:19:30;21.40;43.40
64718;DHT22;62506;46.070;14.492;2023-03-01T07:21:56;21.40;43.40
64718;DHT22;62506;46.070;14.492;2023-03-01T07:24:22;21.40;43.40
64718;DHT22;62506;46.070;14.492;2023-03-01T07:26:48;21.40;43.40
64718;DHT22;62506;46.070;14.492;2023-03-01T07:29:14;21.40;43.30
64718;DHT22;62506;46.070;14.492;2023-03-01T07:31:40;21.30;43.20
64718;DHT22;62506;46.070;14.492;2023-03-01T07:34:05;21.30;43.20
64718;DHT22;62506;46.070;14.492;2023-03-01T07:36:31;21.40;43.20
64718;DHT22;62506;46.070;14.492;2023-03-01T07:38:56;21.40;43.10
64718;DHT22;62506;46.070;14.492;2023-03-01T07:41:23;21.40;43.10
64718;DHT22;62506;46.070;14.492;2023-03-01T07:43:49;21.30;43.00
64718;DHT22;62506;46.070;14.492;2023-03-01T07:46:15;21.30;43.00
64718;DHT22;62506;46.070;14.492;2023-03-01T07:48:40;21.30;42.90
64718;DHT22;62506;46.070;14.492;2023-03-01T07:51:07;21.40;43.30
64718;DHT22;62506;46.070;14.492;2023-03-01T07:53:33;21.40;43.30
64718;DHT22;62506;46.070;14.492;2023-03-01T07:56:03;21.40;43.30
64718;DHT22;62506;46.070;14.492;2023-03-01T07:58:29;21.30;43.10
64718;DHT22;62506;46.070;14.492;2023-03-01T08:00:54;21.30;43.00
64718;DHT22;62506;46.070;14.492;2023-03-01T08:03:20;21.30;43.00
64718;DHT22;62506;46.070;14.492;2023-03-01T08:05:46;21.30;42.90
64718;DHT22;62506;46.070;14.492;2023-03-01T08:08:11;21.30;43.00
64718;DHT22;62506;46.070;14.492;2023-03-01T08:10:37;21.30;43.00
64718;DHT22;62506;46.070;14.492;2023-03-01T08:13:02;21.30;42.90
64718;DHT22;62506;46.070;14.492;2023-03-01T08:15:28;21.30;42.90
64718;DHT22;62506;46.070;14.492;2023-03-01T08:17:53;21.30;42.90
64718;DHT22;62506;46.070;14.492;2023-03-01T08:20:19;21.20;42.90
64718;DHT22;62506;46.070;14.492;2023-03-01T08:22:44;21.20;42.90
64718;DHT22;62506;46.070;14.492;2023-03-01T08:25:10;21.20;42.80
64718;DHT22;62506;46.070;14.492;2023-03-01T08:27:35;21.20;42.80
64718;DHT22;62506;46.070;14.492;2023-03-01T08:30:01;21.10;41.30
64718;DHT22;62506;46.070;14.492;2023-03-01T08:32:27;21.10;42.40
64718;DHT22;62506;46.070;14.492;2023-03-01T08:34:52;21.20;42.90
64718;DHT22;62506;46.070;14.492;2023-03-01T08:37:18;21.20;42.90
64718;DHT22;62506;46.070;14.492;2023-03-01T08:39:43;21.20;42.90
64718;DHT22;62506;46.070;14.492;2023-03-01T08:42:09;21.20;42.90
64718;DHT22;62506;46.070;14.492;2023-03-01T08:44:34;21.20;43.00
64718;DHT22;62506;46.070;14.492;2023-03-01T08:47:00;21.20;42.90
64718;DHT22;62506;46.070;14.492;2023-03-01T08:49:27;21.20;43.00
64718;DHT22;62506;46.070;14.492;2023-03-01T08:51:52;21.20;43.00
64718;DHT22;62506;46.070;14.492;2023-03-01T08:54:19;21.20;43.00
64718;DHT22;62506;46.070;14.492;2023-03-01T08:56:45;21.20;42.90
64718;DHT22;62506;46.070;14.492;2023-03-01T08:59:11;21.20;42.90
64718;DHT22;62506;46.070;14.492;2023-03-01T09:01:37;21.20;42.90
64718;DHT22;62506;46.070;14.492;2023-03-01T09:04:03;21.20;42.90
64718;DHT22;62506;46.070;14.492;2023-03-01T09:06:32;21.20;42.90
64718;DHT22;62506;46.070;14.492;2023-03-01T09:08:58;21.20;43.00
64718;DHT22;62506;46.070;14.492;2023-03-01T09:11:24;21.20;42.90
64718;DHT22;62506;46.070;14.492;2023-03-01T09:13:49;21.20;43.00
64718;DHT22;62506;46.070;14.492;2023-03-01T09:16:15;21.20;42.90
64718;DHT22;62506;46.070;14.492;2023-03-01T09:18:42;21.20;42.90
64718;DHT22;62506;46.070;14.492;2023-03-01T09:21:13;21.20;42.90
64718;DHT22;62506;46.070;14.492;2023-03-01T09:23:42;21.20;42.90
64718;DHT22;62506;46.070;14.492;2023-03-01T09:26:09;21.20;42.90
64718;DHT22;62506;46.070;14.492;2023-03-01T09:28:35;21.20;43.00
64718;DHT22;62506;46.070;14.492;2023-03-01T09:31:02;21.20;42.90
64718;DHT22;62506;46.070;14.492;2023-03-01T09:33:28;21.10;42.90
64718;DHT22;62506;46.070;14.492;2023-03-01T09:35:57;21.10;42.90
64718;DHT22;62506;46.070;14.492;2023-03-01T09:38:23;21.10;42.90
64718;DHT22;62506;46.070;14.492;2023-03-01T09:40:48;21.10;43.10
64718;DHT22;62506;46.070;14.492;2023-03-01T09:45:43;21.10;42.90
64718;DHT22;62506;46.070;14.492;2023-03-01T09:48:20;21.10;43.00
64718;DHT22;62506;46.070;14.492;2023-03-01T09:50:50;21.10;43.00
64718;DHT22;62506;46.070;14.492;2023-03-01T09:53:16;21.20;43.00
64718;DHT22;62506;46.070;14.492;2023-03-01T09:55:44;21.10;42.90
64718;DHT22;62506;46.070;14.492;2023-03-01T10:00:49;21.10;42.90
64718;DHT22;62506;46.070;14.492;2023-03-01T10:03:59;21.20;43.00
64718;DHT22;62506;46.070;14.492;2023-03-01T10:08:58;21.10;42.20
64718;DHT22;62506;46.070;14.492;2023-03-01T10:11:24;21.10;43.00
64718;DHT22;62506;46.070;14.492;2023-03-01T10:16:20;21.10;42.90
64718;DHT22;62506;46.070;14.492;2023-03-01T10:18:47;21.10;42.90
64718;DHT22;62506;46.070;14.492;2023-03-01T10:21:16;21.10;42.60
64718;DHT22;62506;46.070;14.492;2023-03-01T10:23:42;21.20;43.00
64718;DHT22;62506;46.070;14.492;2023-03-01T10:31:25;21.20;42.80
64718;DHT22;62506;46.070;14.492;2023-03-01T10:33:53;21.20;42.80
64718;DHT22;62506;46.070;14.492;2023-03-01T10:36:21;21.10;42.80
64718;DHT22;62506;46.070;14.492;2023-03-01T10:38:50;21.10;42.80
64718;DHT22;62506;46.070;14.492;2023-03-01T10:41:17;21.10;42.80
64718;DHT22;62506;46.070;14.492;2023-03-01T10:46:51;21.10;42.70
64718;DHT22;62506;46.070;14.492;2023-03-01T10:49:07;21.10;42.80
64718;DHT22;62506;46.070;14.492;2023-03-01T10:51:37;21.10;42.80
64718;DHT22;62506;46.070;14.492;2023-03-01T10:54:04;21.10;42.80
64718;DHT22;62506;46.070;14.492;2023-03-01T10:56:30;21.10;42.70
64718;DHT22;62506;46.070;14.492;2023-03-01T10:59:19;21.10;42.70
64718;DHT22;62506;46.070;14.492;2023-03-01T11:01:45;21.10;42.60
64718;DHT22;62506;46.070;14.492;2023-03-01T11:04:11;21.10;42.80
64718;DHT22;62506;46.070;14.492;2023-03-01T11:06:38;21.10;42.70
64718;DHT22;62506;46.070;14.492;2023-03-01T11:09:14;21.10;40.80
64718;DHT22;62506;46.070;14.492;2023-03-01T11:11:41;21.00;41.20
64718;DHT22;62506;46.070;14.492;2023-03-01T11:14:07;21.00;41.70
64718;DHT22;62506;46.070;14.492;2023-03-01T11:16:38;21.10;43.40
64718;DHT22;62506;46.070;14.492;2023-03-01T11:21:33;21.20;44.00
64718;DHT22;62506;46.070;14.492;2023-03-01T11:24:00;21.30;44.30
64718;DHT22;62506;46.070;14.492;2023-03-01T11:26:26;21.30;44.40
64718;DHT22;62506;46.070;14.492;2023-03-01T11:28:53;21.30;44.00
64718;DHT22;62506;46.070;14.492;2023-03-01T11:31:20;21.40;44.10
64718;DHT22;62506;46.070;14.492;2023-03-01T11:38:45;21.40;44.30
64718;DHT22;62506;46.070;14.492;2023-03-01T11:41:13;21.40;44.30
64718;DHT22;62506;46.070;14.492;2023-03-01T11:56:55;21.50;44.50
64718;DHT22;62506;46.070;14.492;2023-03-01T12:04:38;21.50;45.20
64718;DHT22;62506;46.070;14.492;2023-03-01T12:07:46;21.40;44.50
64718;DHT22;62506;46.070;14.492;2023-03-01T12:15:20;21.40;44.60
64718;DHT22;62506;46.070;14.492;2023-03-01T12:20:29;21.30;44.60
64718;DHT22;62506;46.070;14.492;2023-03-01T12:23:01;21.40;44.90
64718;DHT22;62506;46.070;14.492;2023-03-01T12:25:35;21.40;44.80
64718;DHT22;62506;46.070;14.492;2023-03-01T12:30:49;21.40;44.70
64718;DHT22;62506;46.070;14.492;2023-03-01T12:38:31;21.30;44.80
64718;DHT22;62506;46.070;14.492;2023-03-01T12:51:20;21.20;43.80
64718;DHT22;62506;46.070;14.492;2023-03-01T12:53:48;21.30;44.30
64718;DHT22;62506;46.070;14.492;2023-03-01T12:56:19;21.30;44.10
64718;DHT22;62506;46.070;14.492;2023-03-01T13:06:53;21.40;44.40
64718;DHT22;62506;46.070;14.492;2023-03-01T13:11:46;21.40;44.40
64718;DHT22;62506;46.070;14.492;2023-03-01T13:16:48;21.30;44.60
64718;DHT22;62506;46.070;14.492;2023-03-01T13:19:21;21.30;44.60
64718;DHT22;62506;46.070;14.492;2023-03-01T13:21:48;21.30;44.50
64718;DHT22;62506;46.070;14.492;2023-03-01T13:32:17;21.20;44.70
64718;DHT22;62506;46.070;14.492;2023-03-01T13:34:44;21.20;44.60
64718;DHT22;62506;46.070;14.492;2023-03-01T13:37:17;21.20;44.60
64718;DHT22;62506;46.070;14.492;2023-03-01T13:39:43;21.20;44.50
64718;DHT22;62506;46.070;14.492;2023-03-01T13:42:31;21.20;44.50
64718;DHT22;62506;46.070;14.492;2023-03-01T13:44:54;21.20;44.50
64718;DHT22;62506;46.070;14.492;2023-03-01T13:47:20;21.20;44.40
64718;DHT22;62506;46.070;14.492;2023-03-01T13:49:47;21.20;44.30
64718;DHT22;62506;46.070;14.492;2023-03-01T13:57:39;21.20;44.20
64718;DHT22;62506;46.070;14.492;2023-03-01T14:00:06;21.20;44.20
64718;DHT22;62506;46.070;14.492;2023-03-01T14:02:32;21.20;44.20
64718;DHT22;62506;46.070;14.492;2023-03-01T14:04:59;21.20;44.20
64718;DHT22;62506;46.070;14.492;2023-03-01T14:07:26;21.30;44.40
64718;DHT22;62506;46.070;14.492;2023-03-01T14:09:55;21.30;44.90
64718;DHT22;62506;46.070;14.492;2023-03-01T14:15:08;21.20;45.50
64718;DHT22;62506;46.070;14.492;2023-03-01T14:20:18;21.20;45.80
64718;DHT22;62506;46.070;14.492;2023-03-01T14:22:44;21.20;45.80
64718;DHT22;62506;46.070;14.492;2023-03-01T14:27:39;21.20;46.00
64718;DHT22;62506;46.070;14.492;2023-03-01T14:30:24;21.20;46.00
64718;DHT22;62506;46.070;14.492;2023-03-01T14:32:59;21.20;46.00
64718;DHT22;62506;46.070;14.492;2023-03-01T14:35:26;21.20;45.90
64718;DHT22;62506;46.070;14.492;2023-03-01T14:37:52;21.20;45.90
64718;DHT22;62506;46.070;14.492;2023-03-01T14:42:47;21.10;42.30
64718;DHT22;62506;46.070;14.492;2023-03-01T14:45:12;20.90;43.20
64718;DHT22;62506;46.070;14.492;2023-03-01T14:47:38;20.90;44.20
64718;DHT22;62506;46.070;14.492;2023-03-01T14:50:09;20.90;45.30
64718;DHT22;62506;46.070;14.492;2023-03-01T14:52:40;20.90;45.40
64718;DHT22;62506;46.070;14.492;2023-03-01T14:55:15;20.90;45.30
64718;DHT22;62506;46.070;14.492;2023-03-01T14:57:46;20.90;45.30
64718;DHT22;62506;46.070;14.492;2023-03-01T15:00:19;21.00;45.30
64718;DHT22;62506;46.070;14.492;2023-03-01T15:02:46;21.00;45.20
64718;DHT22;62506;46.070;14.492;2023-03-01T15:05:15;21.00;44.90
64718;DHT22;62506;46.070;14.492;2023-03-01T15:07:44;21.00;44.70
64718;DHT22;62506;46.070;14.492;2023-03-01T15:10:33;21.10;44.70
64718;DHT22;62506;46.070;14.492;2023-03-01T15:13:12;21.20;44.50
64718;DHT22;62506;46.070;14.492;2023-03-01T15:15:41;21.30;44.40
64718;DHT22;62506;46.070;14.492;2023-03-01T15:18:18;21.40;44.50
64718;DHT22;62506;46.070;14.492;2023-03-01T15:20:44;21.40;44.40
64718;DHT22;62506;46.070;14.492;2023-03-01T15:23:20;21.50;44.30
64718;DHT22;62506;46.070;14.492;2023-03-01T15:25:47;21.50;44.90
64718;DHT22;62506;46.070;14.492;2023-03-01T15:28:21;21.50;44.40
64718;DHT22;62506;46.070;14.492;2023-03-01T15:30:52;21.60;44.20
64718;DHT22;62506;46.070;14.492;2023-03-01T15:35:53;21.60;44.50
64718;DHT22;62506;46.070;14.492;2023-03-01T15:41:21;21.70;44.30
64718;DHT22;62506;46.070;14.492;2023-03-01T15:43:48;21.70;44.20
64718;DHT22;62506;46.070;14.492;2023-03-01T15:46:19;21.70;43.50
64718;DHT22;62506;46.070;14.492;2023-03-01T15:48:47;21.70;43.50
64718;DHT22;62506;46.070;14.492;2023-03-01T15:51:14;21.70;43.40
64718;DHT22;62506;46.070;14.492;2023-03-01T15:53:40;21.70;43.70
64718;DHT22;62506;46.070;14.492;2023-03-01T15:56:06;21.80;44.00
64718;DHT22;62506;46.070;14.492;2023-03-01T15:58:33;21.80;43.80
64718;DHT22;62506;46.070;14.492;2023-03-01T16:00:58;21.80;44.00
64718;DHT22;62506;46.070;14.492;2023-03-01T16:03:24;21.80;44.00
64718;DHT22;62506;46.070;14.492;2023-03-01T16:05:50;21.90;44.10
64718;DHT22;62506;46.070;14.492;2023-03-01T16:08:16;21.90;44.00
64718;DHT22;62506;46.070;14.492;2023-03-01T16:10:42;21.90;43.80
64718;DHT22;62506;46.070;14.492;2023-03-01T16:13:12;21.90;43.90
64718;DHT22;62506;46.070;14.492;2023-03-01T16:15:37;21.90;43.50
64718;DHT22;62506;46.070;14.492;2023-03-01T16:18:04;21.90;43.80
64718;DHT22;62506;46.070;14.492;2023-03-01T16:20:35;21.90;43.90
64718;DHT22;62506;46.070;14.492;2023-03-01T16:23:01;21.90;43.60
64718;DHT22;62506;46.070;14.492;2023-03-01T16:25:27;21.90;44.00
64718;DHT22;62506;46.070;14.492;2023-03-01T16:27:53;22.00;44.10
64718;DHT22;62506;46.070;14.492;2023-03-01T16:30:20;22.00;44.10
64718;DHT22;62506;46.070;14.492;2023-03-01T16:32:46;22.10;44.00
64718;DHT22;62506;46.070;14.492;2023-03-01T16:35:12;22.10;43.80
64718;DHT22;62506;46.070;14.492;2023-03-01T16:37:39;22.10;43.80
64718;DHT22;62506;46.070;14.492;2023-03-01T16:40:05;22.10;43.80
64718;DHT22;62506;46.070;14.492;2023-03-01T16:42:34;22.10;43.70
64718;DHT22;62506;46.070;14.492;2023-03-01T16:45:00;22.10;43.50
64718;DHT22;62506;46.070;14.492;2023-03-01T16:47:27;22.10;43.40
64718;DHT22;62506;46.070;14.492;2023-03-01T16:49:53;22.10;43.20
64718;DHT22;62506;46.070;14.492;2023-03-01T16:52:19;22.20;43.30
64718;DHT22;62506;46.070;14.492;2023-03-01T16:54:45;22.20;43.30
64718;DHT22;62506;46.070;14.492;2023-03-01T16:57:11;22.20;43.30
64718;DHT22;62506;46.070;14.492;2023-03-01T16:59:36;22.20;41.80
64718;DHT22;62506;46.070;14.492;2023-03-01T17:02:03;22.10;42.20
64718;DHT22;62506;46.070;14.492;2023-03-01T17:04:28;22.20;43.10
64718;DHT22;62506;46.070;14.492;2023-03-01T17:06:54;22.20;43.10
64718;DHT22;62506;46.070;14.492;2023-03-01T17:09:20;22.20;43.40
64718;DHT22;62506;46.070;14.492;2023-03-01T17:11:47;22.30;43.60
64718;DHT22;62506;46.070;14.492;2023-03-01T17:14:13;22.20;42.70
64718;DHT22;62506;46.070;14.492;2023-03-01T17:16:40;22.20;42.90
64718;DHT22;62506;46.070;14.492;2023-03-01T17:19:06;22.20;43.10